ENEVENAN

Guest
Details From ENEV - EVENES
To ENAN - ANDOYA
Flight Number -
Tags generated
Created
Modified
Stats Distance 50 nm / 92 km
Max Altitude 0 ft / 0 m
Waypoints 3
Social Downloads 1
Likes 0
Share VATSIM

Download

Looking for another format? Having issues loading an existing format? Contact us
Advertisement - Login to hide

Notes

Basic altitude profile: - Ascent Rate: 2500ft/min - Ascent Speed: 250kts - Cruise Altitude: 35000ft - Cruise Speed: 420kts - Descent Rate: 1500ft/min - Descent Speed: 250kts Options: - Use NATs: yes - Use PACOTS: yes - Use low airways: yes - Use high airways: yes

Route

ENEV AND ENAN

ID Type Via Altitude Latitude Longitude Leg Dist Tot Dist Heading (true) Name
O ENEV APT - 0 ft / 0 m 68.49130˚ 16.67811˚ - 0 nm - EVENES
AND VOR - 0 ft / 0 m 69.28783˚ 16.14138˚ 49 nm 49 nm 347° / 346° ANDOYA VOR-DME
O ENAN APT - 0 ft / 0 m 69.29335˚ 16.13775˚ 0 nm 49 nm 347° / 347° ANDOYA

Altitude Profile

Advertisement - Login to hide

ENEV

Details ICAO ENEV (EVE)
Name EVENES
Region Norway
Timezone Europe/Oslo (UTC+1.0)
Stats Elevation 84 ft / 26 m (AMSL)
Location 68.491300° 16.678109°
Runways 1
Magnetic Variation 7.228° E

METAR

ENEV 171350Z 15003KT 120V180 9999 SCT034 M02/M03 Q0998 RMK WIND 1400FT 14007KT

Decode

TAF

Not found

Departure Runways

ID Width Length Bearing (true) Bearing (mag) Surface Threshold Offset Overrun Length
17 148 ft / 45 m 9,208 ft / 2,807 m 177.60° 170.37° Asphalt 302 ft / 92 m 0 ft / 0 m
35 148 ft / 45 m 9,208 ft / 2,807 m 357.60° 350.37° Asphalt 214 ft / 65 m 925 ft / 282 m

ENAN

Details ICAO ENAN (ANX)
Name ANDOYA
Region Norway
Timezone Europe/Oslo (UTC+1.0)
Stats Elevation 43 ft / 13 m (AMSL)
Location 69.293353° 16.137750°
Runways 2
Magnetic Variation 7.093° E

METAR

ENAN 171420Z 22010KT 9999 SCT039 BKN051 02/M03 Q0997

Decode

TAF

TAF TAF ENAN 171100Z 1712/1812 VRB08KT 9999 FEW015CB BKN025 TEMPO 1712/1715 25015KT TEMPO 1712/1724 0800 SHSNRAGS VV006

Decode

Destination Runways

ID Width Length Bearing (true) Bearing (mag) Surface Threshold Offset Overrun Length
03 148 ft / 45 m 5,468 ft / 1,667 m 31.41° 24.32° Asphalt 0 ft / 0 m 0 ft / 0 m
14 148 ft / 45 m 9,830 ft / 2,996 m 149.75° 142.66° Asphalt 823 ft / 251 m 0 ft / 0 m
21 148 ft / 45 m 5,468 ft / 1,667 m 211.43° 204.34° Asphalt 0 ft / 0 m 0 ft / 0 m
32 148 ft / 45 m 9,830 ft / 2,996 m 329.78° 322.69° Asphalt 886 ft / 270 m 0 ft / 0 m

Approach Navaids

Runway Type Ident Frequency Range Bearing (true) Bearing (mag) Slope Elevation
14 Localiser AN 109.10 MHz 18 nm / 33 km 149.79° 142.70° - 29 ft / 9 m (AMSL)